• Join FlightAware (Why Join?)
  • Login
  • US Flag 
05:14AM EDT


 

Airport Tracker/Info


-or-


 

Live Flight TrackerFlight Track Log ✈ UAL4202 ✈ 04-Apr-2013 ✈ KEWR - KSTL

Flight Track Log - Related Links

Times and Time Zones

All times are in EDT time to prevent confusion due to time zone crossing. See the UAL4202 flight status page for this flight to view local times or setup timezone preferences in your user account.

Time Position Orientation Groundspeed Altitude Reporting Facility
EDT Latitude Longitude Course Direction KTS MPH feet Rate Location/Type
05:14PM 40.6414 -74.1842 294° West 166 191 2,000  Level New York Center
05:15PM 40.6500 -74.2500 280° West 224 258 4,100 2,160 Climbing New York TRACON
05:16PM 40.7349 -74.5342 277° West  Level FlightAware Approximate
05:16PM 40.6667 -74.3333 285° West 249 287 6,200  Level New York TRACON
05:17PM 40.7467 -74.6629 277° West  Level FlightAware Approximate
05:17PM 40.7000 -74.4167 298° West 265 305 8,500  Level New York TRACON
05:18PM 40.7571 -74.7918 276° West  Level FlightAware Approximate
05:18PM 40.7167 -74.5000 285° West 263 303 10,400  Level New York TRACON
05:19PM 40.7680 -74.9205 294° West  Level FlightAware Approximate
05:20PM 40.7450 -74.7372 279° West 309 356 12,900  Level New York Center
05:21PM 40.7622 -74.8450 282° West 326 375 14,200 1,380 Climbing New York Center
05:22PM 40.7825 -74.9750 282° West 331 381 15,700 1,260 Climbing New York Center
05:23PM 40.7992 -75.0967 280° West 337 388 16,800 1,020 Climbing New York Center
05:24PM 40.7908 -75.2086 264° West 337 388 17,800 1,020 Climbing New York Center
05:25PM 40.7736 -75.3308 259° West 332 382 18,900 1,080 Climbing New York Center
05:26PM 40.7372 -75.4597 250° West 337 388 20,000 960 Climbing New York Center
05:27PM 40.6950 -75.5772 245° Southwest 342 394 20,900 1,020 Climbing New York Center
05:28PM 40.6506 -75.6947 244° Southwest 355 409 22,100 1,320 Climbing New York Center
05:29PM 40.6061 -75.8117 243° Southwest 360 414 23,600 1,260 Climbing New York Center
05:30PM 40.5708 -75.9019 243° Southwest 355 409 24,700 1,440 Climbing New York Center
05:31PM 40.5239 -76.0242 243° Southwest 355 409 26,500 1,560 Climbing New York Center
05:32PM 40.4839 -76.1275 243° Southwest 344 396 27,900 720 Climbing New York Center
05:33PM 40.4389 -76.2442 243° Southwest 333 383 28,000  Climbing New York Center
05:34PM 40.3964 -76.3525 243° Southwest 333 383 28,000  Level New York Center
05:35PM 40.3531 -76.4714 244° Southwest 345 397 28,000 60 Level New York Center
05:36PM 40.3058 -76.5875 242° Southwest 356 410 28,200 780 Climbing New York Center
05:37PM 40.2750 -76.7044 251° West 355 409 29,600 1,260 Climbing New York Center
05:38PM 40.2536 -76.7981 253° West 343 395 30,800 1,440 Climbing New York Center
05:39PM 40.2236 -76.9314 254° West 331 381 32,500 1,560 Climbing New York Center
05:40PM 40.2158 -77.0394 265° West 318 366 34,000 1,380 Climbing New York Center
05:41PM 40.2164 -77.1481 270° West 312 359 35,300 960 Climbing New York Center
05:42PM 40.2106 -77.2536 266° West 307 353 36,000 300 Climbing New York Center
05:43PM 40.2072 -77.3511 267° West 307 353 36,000  Level New York Center
05:44PM 40.2028 -77.4678 267° West 313 360 36,000  Level New York Center
05:46PM 40.1914 -77.7917 267° West 355 409 36,000  Level Cleveland Center
05:47PM 40.1861 -77.9169 267° West 349 402 36,000  Level Cleveland Center
05:48PM 40.1781 -78.0233 264° West 343 395 36,000  Level Cleveland Center
05:49PM 40.1725 -78.1486 267° West 348 400 36,000  Level Cleveland Center
05:50PM 40.1647 -78.2764 265° West 348 400 36,000  Level Cleveland Center
05:51PM 40.1608 -78.4017 268° West 348 400 36,000  Level Cleveland Center
05:52PM 40.1550 -78.5267 267° West 348 400 36,000  Level Cleveland Center
05:53PM 40.1508 -78.6544 268° West 348 400 36,000  Level Cleveland Center
05:54PM 40.1508 -78.7794 270° West 348 400 36,000  Level Cleveland Center
05:55PM 40.1486 -78.9072 269° West 348 400 36,000  Level Cleveland Center
05:56PM 40.1483 -79.0378 270° West 348 400 36,000  Level Cleveland Center
05:57PM 40.1442 -79.1817 268° West 357 411 36,000  Level Cleveland Center
05:58PM 40.1431 -79.2850 269° West 357 411 36,000  Level Cleveland Center
05:59PM 40.1447 -79.4261 271° West 357 411 36,000  Level Cleveland Center
06:00PM 40.1417 -79.5564 268° West 362 417 36,000  Level Cleveland Center
06:01PM 40.1408 -79.6894 270° West 362 417 36,000  Level Cleveland Center
06:02PM 40.1375 -79.8172 268° West 362 417 36,000  Level Cleveland Center
06:03PM 40.1342 -79.9478 268° West 362 417 36,000  Level Cleveland Center
06:04PM 40.1267 -80.0944 266° West 362 417 36,000  Level Cleveland Center
06:05PM 40.1250 -80.2275 269° West 368 423 36,000  Level Cleveland Center
06:06PM 40.1253 -80.3469 270° West 365 420 36,000  Level Cleveland Center
06:07PM 40.1233 -80.4772 269° West 365 420 36,000  Level Cleveland Center
06:08PM 40.1192 -80.6131 268° West 365 420 36,000  Level Cleveland Center
06:09PM 40.1150 -80.7486 268° West 365 420 36,000  Level Cleveland Center
06:10PM 40.1125 -80.8844 269° West 365 420 36,000  Level Cleveland Center
06:11PM 40.1058 -81.0200 266° West 370 426 36,000  Level Cleveland Center
06:13PM 40.0953 -81.2469 267° West 377 434 36,000  Level Indianapolis Center
06:14PM 40.0908 -81.3850 268° West 377 434 36,000  Level Indianapolis Center
06:15PM 40.0861 -81.5233 267° West 376 433 36,000  Level Indianapolis Center
06:16PM 40.0819 -81.6617 268° West 378 435 36,000  Level Indianapolis Center
06:17PM 40.0767 -81.8050 267° West 376 433 36,000  Level Indianapolis Center
06:18PM 40.0711 -81.9436 267° West 377 434 36,000  Level Indianapolis Center
06:19PM 40.0653 -82.1058 267° West 381 438 36,000  Level Indianapolis Center
06:20PM 40.0600 -82.2442 267° West 380 437 36,000  Level Indianapolis Center
06:21PM 40.0539 -82.3831 267° West 382 440 36,000  Level Indianapolis Center
06:22PM 40.0478 -82.5225 267° West 382 440 36,000  Level Indianapolis Center
06:23PM 40.0414 -82.6611 267° West 380 437 36,000  Level Indianapolis Center
06:24PM 40.0356 -82.7986 267° West 376 433 36,000  Level Indianapolis Center
06:25PM 40.0289 -82.9344 266° West 373 429 36,000  Level Indianapolis Center
06:27PM 40.0211 -83.0906 266° West 369 425 36,000  Level Indianapolis Center
06:28PM 40.0144 -83.2289 266° West 378 435 36,000  Level Indianapolis Center
06:29PM 40.0072 -83.3692 266° West 385 443 36,000  Level Indianapolis Center
06:30PM 40.0000 -83.5108 266° West 393 452 36,000  Level Indianapolis Center
06:31PM 39.9919 -83.6514 266° West 392 451 36,000  Level Indianapolis Center
06:32PM 39.9831 -83.8144 266° West 389 448 36,000  Level Indianapolis Center
06:33PM 39.9758 -83.9561 266° West 390 449 36,000  Level Indianapolis Center
06:34PM 39.9675 -84.0961 266° West 388 447 36,000  Level Indianapolis Center
06:35PM 39.9589 -84.2364 265° West 387 445 36,000  Level Indianapolis Center
06:36PM 39.9511 -84.3769 266° West 386 444 36,000 -60 Level Indianapolis Center
06:37PM 39.9431 -84.5178 266° West 386 444 35,900  Descending Indianapolis Center
06:38PM 39.9319 -84.6839 265° West 391 450 36,000  Climbing Indianapolis Center
06:39PM 39.9228 -84.8247 265° West 389 448 36,000  Level Indianapolis Center
06:40PM 39.9142 -84.9608 265° West 387 445 36,000  Level Indianapolis Center
06:41PM 39.9053 -85.1019 265° West 388 447 36,000  Level Indianapolis Center
06:42PM 39.8953 -85.2428 265° West 387 445 36,000  Level Indianapolis Center
06:43PM 39.8861 -85.3831 265° West 387 445 36,000  Level Indianapolis Center
06:44PM 39.8742 -85.5478 265° West 389 448 36,000  Level Indianapolis Center
06:45PM 39.8650 -85.6883 265° West 388 447 36,000  Level Indianapolis Center
06:46PM 39.8433 -85.8264 258° West 387 445 36,000  Level Indianapolis Center
06:47PM 39.8169 -85.9622 256° West 386 444 36,000  Level Indianapolis Center
06:48PM 39.7903 -86.0981 256° West 385 443 36,000  Level Indianapolis Center
06:49PM 39.7631 -86.2344 255° West 385 443 36,000  Level Indianapolis Center
06:50PM 39.7361 -86.3686 255° West 384 442 36,000  Level Indianapolis Center
06:51PM 39.7078 -86.5156 256° West 386 444 36,000 -360 Level Indianapolis Center
06:52PM 39.6800 -86.6511 255° West 385 443 35,300 -1,320 Descending Indianapolis Center
06:53PM 39.6531 -86.7878 256° West 388 447 33,300 -2,100 Descending Indianapolis Center
06:54PM 39.6197 -86.9517 255° West 401 461 31,000 -2,160 Descending Indianapolis Center
06:55PM 39.5906 -87.0950 255° West 408 470 28,900 -1,500 Descending Indianapolis Center
06:57PM 39.5617 -87.2383 255° West 408 470 28,000 -480 Descending Indianapolis Center
06:58PM 39.5308 -87.3822 255° West 412 474 28,000  Level Indianapolis Center
06:59PM 39.5019 -87.5244 255° West 407 468 28,000  Level Indianapolis Center
07:00PM 39.4706 -87.6681 254° West 411 473 28,000  Level Indianapolis Center
07:01PM 39.4417 -87.8106 255° West 407 468 28,000  Level Indianapolis Center
07:02PM 39.4056 -87.9772 254° West 409 471 28,000  Level Indianapolis Center
07:02PM 39.4031 -87.9914 257° West 406 467 28,000  Level Kansas City Center
07:03PM 39.3703 -88.1308 253° West 404 465 28,000  Level Kansas City Center
07:04PM 39.3236 -88.3039 251° West 414 476 28,000  Level Kansas City Center
07:05PM 39.2864 -88.4458 251° West 415 478 28,000  Level Kansas City Center
07:06PM 39.2489 -88.5878 251° West 417 480 28,000 -480 Level Kansas City Center
07:07PM 39.2089 -88.7336 251° West 418 481 27,100 -1,380 Descending Kansas City Center
07:08PM 39.1719 -88.8722 251° West 412 474 25,200 -2,040 Descending Kansas City Center
07:09PM 39.1292 -89.0256 250° West 414 476 23,000 -2,160 Descending Kansas City Center
07:11PM 39.0831 -89.1539 245° Southwest 377 434 20,200 -2,100 Descending FAA TRACON SMA TRACON (SMA)
07:11PM 39.0742 -89.1958 255° West 393 452 19,600 -2,100 Descending FAA TRACON SMA TRACON (SMA)
07:11PM 39.0622 -89.2478 254° West 393 452 18,800 -2,100 Descending FAA TRACON SMA TRACON (SMA)
07:12PM 39.0531 -89.2892 254° West 393 452 18,200 -1,680 Descending FAA TRACON SMA TRACON (SMA)
07:12PM 39.0425 -89.3300 252° West 392 451 17,700 -1,800 Descending FAA TRACON SMA TRACON (SMA)
07:12PM 39.0319 -89.3700 251° West 387 445 17,000 -2,280 Descending FAA TRACON SMA TRACON (SMA)
07:13PM 39.0231 -89.4214 257° West 383 441 16,200 -2,100 Descending FAA TRACON SMA TRACON (SMA)
07:13PM 39.0117 -89.4594 249° West 375 432 15,600 -1,500 Descending FAA TRACON SMA TRACON (SMA)
07:13PM 39.0003 -89.5083 253° West 371 427 15,200 -900 Descending FAA TRACON SMA TRACON (SMA)
07:14PM 38.9914 -89.5481 254° West 373 429 15,000 -300 Descending FAA TRACON SMA TRACON (SMA)
07:14PM 38.9786 -89.5858 246° West 375 432 15,000 -480 Level FAA TRACON SMA TRACON (SMA)
07:14PM 38.9631 -89.6319 247° West 369 425 14,700 -1,380 Descending FAA TRACON SMA TRACON (SMA)
07:15PM 38.9519 -89.6678 248° West 355 409 14,100 -1,800 Descending FAA TRACON SMA TRACON (SMA)
07:15PM 38.9414 -89.7022 249° West 340 391 13,500 -1,800 Descending FAA TRACON SMA TRACON (SMA)
07:15PM 38.9297 -89.7347 245° Southwest 330 380 12,900 -2,100 Descending FAA TRACON SMA TRACON (SMA)
07:16PM 38.9172 -89.7750 248° West 317 365 12,100 -2,100 Descending FAA TRACON SMA TRACON (SMA)
07:16PM 38.9069 -89.8064 247° West 311 358 11,500 -1,980 Descending FAA TRACON SMA TRACON (SMA)
07:16PM 38.8953 -89.8450 249° West 303 349 10,800 -1,980 Descending FAA TRACON SMA TRACON (SMA)
07:17PM 38.8856 -89.8753 248° West 299 344 10,200 -1,680 Descending FAA TRACON SMA TRACON (SMA)
07:17PM 38.8761 -89.9044 247° West 293 337 9,700 -1,680 Descending FAA TRACON SMA TRACON (SMA)
07:17PM 38.8672 -89.9333 248° West 285 328 9,100 -1,800 Descending FAA TRACON SMA TRACON (SMA)
07:18PM 38.8550 -89.9686 246° West 280 322 8,500 -1,500 Descending FAA TRACON SMA TRACON (SMA)
07:18PM 38.8458 -89.9975 248° West 281 323 8,100 -780 Descending FAA TRACON SMA TRACON (SMA)
07:18PM 38.8369 -90.0256 248° West 279 321 8,000 -180 Descending FAA TRACON SMA TRACON (SMA)
07:19PM 38.8261 -90.0606 248° West 276 318 8,000  Level FAA TRACON SMA TRACON (SMA)
07:19PM 38.8169 -90.0878 247° West 272 313 8,000  Level FAA TRACON SMA TRACON (SMA)
07:19PM 38.8078 -90.1231 252° West 273 314 8,000  Level FAA TRACON SMA TRACON (SMA)
07:20PM 38.8139 -90.1511 286° West 277 319 8,000 -180 Level FAA TRACON SMA TRACON (SMA)
07:20PM 38.8242 -90.1772 297° West 270 311 7,900 -1,080 Descending FAA TRACON SMA TRACON (SMA)
07:20PM 38.8372 -90.2086 298° West 259 298 7,300 -1,680 Descending FAA TRACON SMA TRACON (SMA)
07:21PM 38.8472 -90.2325 298° West 253 291 6,800 -1,680 Descending FAA TRACON SMA TRACON (SMA)
07:21PM 38.8572 -90.2567 298° West 249 287 6,200 -1,980 Descending FAA TRACON SMA TRACON (SMA)
07:21PM 38.8683 -90.2875 295° West 249 287 5,500 -1,500 Descending FAA TRACON SMA TRACON (SMA)
07:22PM 38.8775 -90.3125 295° West 249 287 5,200 -780 Descending FAA TRACON SMA TRACON (SMA)
07:22PM 38.8858 -90.3367 294° West 245 282 5,000 -300 Descending FAA TRACON SMA TRACON (SMA)
07:22PM 38.8972 -90.3667 296° West 245 282 5,000  Level FAA TRACON SMA TRACON (SMA)
07:22PM 38.9000 -90.3928 278° West 250 288 5,000 -180 Level FAA TRACON SMA TRACON (SMA)
07:23PM 38.8839 -90.4192 232° Southwest 255 293 4,900 -900 Descending FAA TRACON SMA TRACON (SMA)
07:23PM 38.8669 -90.4364 218° Southwest 254 292 4,400 -1,620 Descending FAA TRACON SMA TRACON (SMA)
07:24PM 38.8500 -90.4517 215° Southwest 247 284 3,800 -1,680 Descending FAA TRACON SMA TRACON (SMA)
07:24PM 38.8292 -90.4539 185° South 248 285 3,300 -1,440 Descending FAA TRACON SMA TRACON (SMA)
07:24PM 38.8058 -90.4503 173° South 226 260 2,900 -1,200 Descending FAA TRACON SMA TRACON (SMA)